createdAt,value
2022-07-29T00:01:43.045Z,51.26
2022-07-29T00:04:10.554Z,51.34
2022-07-29T00:06:37.838Z,51.39
2022-07-29T00:09:05.528Z,50.99
2022-07-29T00:11:32.943Z,50.93
2022-07-29T00:14:00.233Z,50.87
2022-07-29T00:16:27.702Z,51.20
2022-07-29T00:18:54.981Z,51.40
2022-07-29T00:21:22.275Z,51.67
2022-07-29T00:23:49.707Z,51.59
2022-07-29T00:26:16.902Z,51.64
2022-07-29T00:28:44.256Z,51.52
2022-07-29T00:31:12.014Z,51.69
2022-07-29T00:33:39.292Z,52.27
2022-07-29T00:36:06.748Z,52.10
2022-07-29T00:38:34.037Z,52.70
2022-07-29T00:41:01.315Z,52.91
2022-07-29T00:43:28.510Z,52.65
2022-07-29T00:45:56.196Z,52.61
2022-07-29T00:48:23.479Z,52.81
2022-07-29T00:50:50.881Z,52.67
2022-07-29T00:53:18.210Z,52.62
2022-07-29T00:55:45.929Z,52.77
2022-07-29T00:58:14.595Z,53.30
2022-07-29T01:00:43.970Z,53.18
2022-07-29T01:03:13.609Z,53.36
2022-07-29T01:05:50.429Z,53.44
2022-07-29T01:08:21.461Z,53.64
2022-07-29T01:10:50.122Z,53.71
2022-07-29T01:13:18.046Z,54.13
2022-07-29T01:15:53.849Z,54.02
2022-07-29T01:18:29.056Z,54.07
2022-07-29T01:21:09.211Z,54.41
2022-07-29T01:23:44.656Z,54.75
2022-07-29T01:26:37.146Z,55.62
2022-07-29T01:29:25.792Z,56.00
2022-07-29T01:32:07.029Z,56.83
2022-07-29T01:34:40.539Z,57.40
2022-07-29T01:37:23.483Z,57.42
2022-07-29T01:39:53.703Z,57.51
2022-07-29T01:42:46.415Z,58.34
2022-07-29T01:45:38.373Z,58.18
2022-07-29T01:48:17.884Z,57.99
2022-07-29T01:50:51.826Z,57.91
2022-07-29T01:53:43.832Z,57.34
2022-07-29T01:56:13.510Z,57.15
2022-07-29T01:58:43.415Z,57.21
2022-07-29T02:01:13.811Z,57.47
2022-07-29T02:03:47.235Z,57.23
2022-07-29T02:06:19.804Z,57.17
2022-07-29T02:08:48.348Z,57.55
2022-07-29T02:11:15.553Z,57.91
2022-07-29T02:13:44.620Z,58.03
2022-07-29T02:16:13.171Z,58.63
2022-07-29T02:18:43.264Z,58.61
2022-07-29T02:21:15.184Z,58.94
2022-07-29T02:23:50.940Z,59.03
2022-07-29T02:26:21.646Z,58.81
2022-07-29T02:28:51.016Z,58.88
2022-07-29T02:31:22.962Z,58.87
2022-07-29T02:33:51.546Z,58.71
2022-07-29T02:36:22.253Z,58.88
2022-07-29T02:38:54.653Z,58.79
2022-07-29T02:41:27.477Z,58.85
2022-07-29T02:44:05.375Z,58.73
2022-07-29T02:46:36.108Z,58.64
2022-07-29T02:49:10.834Z,58.84
2022-07-29T02:51:50.535Z,58.76
2022-07-29T02:54:25.471Z,58.80
2022-07-29T02:56:56.602Z,58.40
2022-07-29T02:59:28.243Z,58.46
2022-07-29T03:01:56.870Z,58.36
2022-07-29T03:04:26.960Z,58.59
2022-07-29T03:06:55.706Z,58.23
2022-07-29T03:09:24.560Z,58.23
2022-07-29T03:11:52.184Z,58.04
2022-07-29T03:14:21.263Z,58.11
2022-07-29T03:16:50.102Z,58.22
2022-07-29T03:19:18.492Z,57.99
2022-07-29T03:21:45.926Z,58.06
2022-07-29T03:24:33.476Z,58.33
2022-07-29T03:27:01.385Z,57.70
2022-07-29T03:29:33.104Z,58.11
2022-07-29T03:32:08.264Z,57.64
2022-07-29T03:34:37.723Z,57.71
2022-07-29T03:37:07.203Z,57.31
2022-07-29T03:39:40.411Z,56.80
2022-07-29T03:42:09.703Z,56.95
2022-07-29T03:44:38.435Z,56.93
2022-07-29T03:47:09.255Z,57.06
2022-07-29T03:49:39.282Z,56.99
2022-07-29T03:52:07.369Z,57.19
2022-07-29T03:54:35.065Z,56.95
2022-07-29T03:57:03.582Z,56.39
2022-07-29T03:59:33.884Z,56.40
2022-07-29T04:02:04.493Z,56.64
2022-07-29T04:04:34.635Z,56.69
2022-07-29T04:07:02.248Z,56.51
2022-07-29T04:09:29.748Z,56.54
2022-07-29T04:12:02.977Z,56.12
2022-07-29T04:14:32.304Z,55.81
2022-07-29T04:17:00.257Z,56.00
2022-07-29T04:19:27.780Z,55.84
2022-07-29T04:21:55.110Z,55.93
2022-07-29T04:24:22.515Z,55.81
2022-07-29T04:26:50.138Z,55.73
2022-07-29T04:29:17.371Z,55.85
2022-07-29T04:31:45.033Z,56.01
2022-07-29T04:34:13.727Z,55.87
2022-07-29T04:36:41.289Z,56.31
2022-07-29T04:39:08.704Z,56.18
2022-07-29T04:41:35.812Z,55.88
2022-07-29T04:44:07.000Z,55.95
2022-07-29T04:46:36.086Z,55.92
2022-07-29T04:49:04.663Z,56.06
2022-07-29T04:51:32.510Z,56.01
2022-07-29T04:53:59.739Z,55.77
2022-07-29T04:56:27.719Z,55.56
2022-07-29T04:58:55.185Z,55.59
2022-07-29T05:01:22.571Z,55.59
2022-07-29T05:03:50.055Z,55.04
2022-07-29T05:06:17.438Z,55.10
2022-07-29T05:08:44.936Z,54.65
2022-07-29T05:11:14.929Z,54.75
2022-07-29T05:13:47.171Z,54.66
2022-07-29T05:16:15.899Z,54.67
2022-07-29T05:18:43.392Z,54.40
2022-07-29T05:21:10.927Z,54.53
2022-07-29T05:23:38.441Z,54.50
2022-07-29T05:26:05.600Z,54.49
2022-07-29T05:28:38.983Z,54.10
2022-07-29T05:31:06.349Z,53.63
2022-07-29T05:33:36.504Z,53.23
2022-07-29T05:36:08.194Z,53.50
2022-07-29T05:38:36.773Z,53.25
2022-07-29T05:41:05.331Z,53.25
2022-07-29T05:43:33.204Z,52.54
2022-07-29T05:46:00.654Z,52.56
2022-07-29T05:48:28.958Z,52.32
2022-07-29T05:50:56.318Z,52.05
2022-07-29T05:53:24.051Z,51.48
2022-07-29T05:55:51.939Z,51.09
2022-07-29T05:58:19.868Z,51.10
2022-07-29T06:00:47.127Z,50.66
2022-07-29T06:03:14.514Z,50.05
2022-07-29T06:05:42.006Z,49.99
2022-07-29T06:08:09.259Z,49.37
2022-07-29T06:10:37.441Z,49.55
2022-07-29T06:13:04.852Z,49.31
2022-07-29T06:15:32.244Z,49.59
2022-07-29T06:18:01.601Z,49.23
2022-07-29T06:20:33.160Z,49.84
2022-07-29T06:23:00.881Z,49.53
2022-07-29T06:25:31.877Z,49.35
2022-07-29T06:27:59.256Z,48.55
2022-07-29T06:30:26.695Z,48.53
2022-07-29T06:32:54.423Z,47.27
2022-07-29T06:35:39.167Z,47.27
2022-07-29T06:38:25.092Z,47.10
2022-07-29T06:41:07.026Z,46.65
2022-07-29T06:43:50.364Z,46.07
2022-07-29T06:46:21.370Z,46.25
2022-07-29T06:48:49.322Z,46.19
2022-07-29T06:51:22.676Z,45.81
2022-07-29T06:53:59.447Z,44.87
2022-07-29T06:56:38.582Z,45.39
2022-07-29T06:59:09.146Z,44.28
2022-07-29T07:01:41.021Z,44.71
2022-07-29T07:04:10.170Z,44.37
2022-07-29T07:06:37.746Z,43.85
2022-07-29T07:09:05.526Z,43.50
2022-07-29T07:11:33.956Z,43.91
2022-07-29T07:14:03.918Z,43.66
2022-07-29T07:16:32.858Z,43.13
2022-07-29T07:19:01.098Z,43.13
2022-07-29T07:21:30.605Z,43.01
2022-07-29T07:23:59.499Z,42.39
2022-07-29T07:26:27.096Z,42.83
2022-07-29T07:28:54.441Z,42.86
2022-07-29T07:31:21.837Z,42.26
2022-07-29T07:33:49.334Z,42.57
2022-07-29T07:36:16.617Z,41.89
2022-07-29T07:38:43.775Z,41.82
2022-07-29T07:41:11.095Z,42.27
2022-07-29T07:43:38.956Z,42.63
2022-07-29T07:46:06.227Z,43.28
2022-07-29T07:48:36.083Z,42.84
2022-07-29T07:51:03.473Z,42.97
2022-07-29T07:53:31.637Z,42.81
2022-07-29T07:56:15.706Z,42.18
2022-07-29T07:58:43.175Z,41.49
2022-07-29T08:01:11.278Z,41.76
2022-07-29T08:03:39.092Z,41.66
2022-07-29T08:06:07.613Z,41.38
2022-07-29T08:08:35.207Z,40.68
2022-07-29T08:11:09.548Z,40.40
2022-07-29T08:13:39.374Z,39.55
2022-07-29T08:16:14.178Z,39.73
2022-07-29T08:18:43.427Z,39.38
2022-07-29T08:21:11.280Z,40.16
2022-07-29T08:23:51.629Z,40.20
2022-07-29T08:26:23.672Z,39.76
2022-07-29T08:28:52.099Z,39.17
2022-07-29T08:31:19.561Z,39.17
2022-07-29T08:33:47.034Z,39.27
2022-07-29T08:36:14.759Z,39.03
2022-07-29T08:38:42.253Z,39.60
2022-07-29T08:41:09.632Z,38.99
2022-07-29T08:43:38.674Z,38.64
2022-07-29T08:46:06.200Z,38.13
2022-07-29T08:48:34.586Z,38.05
2022-07-29T08:51:03.154Z,37.28
2022-07-29T08:53:33.375Z,38.00
2022-07-29T08:56:03.086Z,37.88
2022-07-29T08:58:36.955Z,37.65
2022-07-29T09:01:07.691Z,37.73
2022-07-29T09:03:42.850Z,37.41
2022-07-29T09:06:10.851Z,38.01
2022-07-29T09:08:38.180Z,37.86
2022-07-29T09:11:05.870Z,37.83
2022-07-29T09:13:33.401Z,37.39
2022-07-29T09:16:04.495Z,36.82
2022-07-29T09:18:42.122Z,36.94
2022-07-29T09:21:33.787Z,37.08
2022-07-29T09:24:15.465Z,37.24
2022-07-29T09:26:45.821Z,36.06
2022-07-29T09:29:19.305Z,36.53
2022-07-29T09:31:49.769Z,37.05
2022-07-29T09:34:22.554Z,36.83
2022-07-29T09:36:51.767Z,36.84
2022-07-29T09:39:33.079Z,36.35
2022-07-29T09:42:03.539Z,37.05
2022-07-29T09:44:49.411Z,36.76
2022-07-29T09:47:18.490Z,36.17
2022-07-29T09:50:01.695Z,36.33
2022-07-29T09:52:31.884Z,36.10
2022-07-29T09:55:13.830Z,34.95
2022-07-29T09:57:47.612Z,34.88
2022-07-29T10:00:20.415Z,34.53
2022-07-29T10:02:48.891Z,35.07
2022-07-29T10:05:26.155Z,34.64
2022-07-29T10:07:59.687Z,35.20
2022-07-29T10:10:32.933Z,34.40
2022-07-29T10:13:08.891Z,35.15
2022-07-29T10:15:42.132Z,36.33
2022-07-29T10:18:10.321Z,36.28
2022-07-29T10:20:38.690Z,36.51
2022-07-29T10:23:06.896Z,34.35
2022-07-29T10:25:34.674Z,33.35
2022-07-29T10:28:02.044Z,33.21
2022-07-29T10:30:29.864Z,33.08
2022-07-29T10:33:12.925Z,32.65
2022-07-29T10:35:54.093Z,32.82
2022-07-29T10:39:09.470Z,31.75
2022-07-29T10:41:56.185Z,32.70
2022-07-29T10:44:26.219Z,32.84
2022-07-29T10:46:54.834Z,32.50
2022-07-29T10:49:30.496Z,32.37
2022-07-29T10:52:08.404Z,32.46
2022-07-29T10:54:44.205Z,32.85
2022-07-29T10:57:25.766Z,33.22
2022-07-29T11:00:17.061Z,33.93
2022-07-29T11:02:47.003Z,33.97
2022-07-29T11:05:20.605Z,34.09
2022-07-29T11:08:20.127Z,33.95
2022-07-29T11:10:50.140Z,34.21
2022-07-29T11:13:52.321Z,33.88
2022-07-29T11:16:26.797Z,34.15
2022-07-29T11:19:14.159Z,33.84
2022-07-29T11:21:55.162Z,33.88
2022-07-29T11:24:32.356Z,33.52
2022-07-29T11:27:40.777Z,34.00
2022-07-29T11:30:10.917Z,33.16
2022-07-29T11:32:41.047Z,32.99
2022-07-29T11:35:37.682Z,33.28
2022-07-29T11:38:28.799Z,33.99
2022-07-29T11:41:18.353Z,33.61
2022-07-29T11:44:01.384Z,33.97
2022-07-29T11:46:50.098Z,34.51
2022-07-29T11:49:32.024Z,34.81
2022-07-29T11:52:04.265Z,34.94
2022-07-29T11:54:38.878Z,35.27
2022-07-29T11:57:22.210Z,35.07
2022-07-29T11:59:50.737Z,34.86
2022-07-29T12:05:11.125Z,34.83
2022-07-29T12:07:02.499Z,34.76
2022-07-29T12:07:41.058Z,34.85
2022-07-29T12:10:19.785Z,34.69
2022-07-29T12:12:57.044Z,34.68
2022-07-29T12:15:39.281Z,35.17
2022-07-29T12:18:24.059Z,35.11
2022-07-29T12:21:06.151Z,34.89
2022-07-29T12:23:34.409Z,35.29
2022-07-29T12:26:10.859Z,35.39
2022-07-29T12:28:49.977Z,35.24
2022-07-29T12:31:41.882Z,35.17
2022-07-29T12:34:05.304Z,34.91
2022-07-29T12:36:33.644Z,35.02
2022-07-29T12:39:01.115Z,34.22
2022-07-29T12:41:32.165Z,33.80
2022-07-29T12:43:59.584Z,34.39
2022-07-29T12:46:26.970Z,34.30
2022-07-29T12:48:59.830Z,34.55
2022-07-29T12:51:32.430Z,34.62
2022-07-29T12:54:30.512Z,34.58
2022-07-29T12:57:01.487Z,35.17
2022-07-29T12:59:28.923Z,35.00
2022-07-29T13:01:56.500Z,35.06
2022-07-29T13:04:32.208Z,34.85
2022-07-29T13:07:05.311Z,35.13
2022-07-29T13:09:49.659Z,35.24
2022-07-29T13:12:17.297Z,34.99
2022-07-29T13:14:47.300Z,34.14
2022-07-29T13:17:16.892Z,34.40
2022-07-29T13:20:13.749Z,33.87
2022-07-29T13:22:48.992Z,34.00
2022-07-29T13:25:25.779Z,33.80
2022-07-29T13:27:55.566Z,33.84
2022-07-29T13:30:24.512Z,33.73
2022-07-29T13:32:53.617Z,33.83
2022-07-29T13:35:21.462Z,33.87
2022-07-29T13:37:50.086Z,33.08
2022-07-29T13:40:19.466Z,33.33
2022-07-29T13:42:47.060Z,33.08
2022-07-29T13:45:14.823Z,33.10
2022-07-29T13:47:47.449Z,33.12
2022-07-29T13:50:16.867Z,33.23
2022-07-29T13:52:44.228Z,32.83
2022-07-29T13:55:11.662Z,32.88
2022-07-29T13:57:39.066Z,33.02
2022-07-29T14:00:06.828Z,32.83
2022-07-29T14:02:36.031Z,32.63
2022-07-29T14:05:07.992Z,33.19
2022-07-29T14:07:36.019Z,32.99
2022-07-29T14:10:04.327Z,33.11
2022-07-29T14:12:32.464Z,33.34
2022-07-29T14:15:00.304Z,32.99
2022-07-29T14:17:28.007Z,32.95
2022-07-29T14:19:55.392Z,33.52
2022-07-29T14:22:24.608Z,33.93
2022-07-29T14:24:53.681Z,34.09
2022-07-29T14:27:37.783Z,33.72
2022-07-29T14:30:07.363Z,34.00
2022-07-29T14:32:34.999Z,33.98
2022-07-29T14:35:02.537Z,34.21
2022-07-29T14:37:39.720Z,34.10
2022-07-29T14:40:08.925Z,34.83
2022-07-29T14:42:38.842Z,35.75
2022-07-29T14:45:09.101Z,35.96
2022-07-29T14:47:36.838Z,36.06
2022-07-29T14:50:05.406Z,36.16
2022-07-29T14:52:32.882Z,36.21
2022-07-29T14:55:00.722Z,35.90
2022-07-29T14:57:28.596Z,36.00
2022-07-29T14:59:56.686Z,36.09
2022-07-29T15:02:40.005Z,36.42
2022-07-29T15:05:12.044Z,36.68
2022-07-29T15:07:39.648Z,36.49
2022-07-29T15:10:07.732Z,36.69
2022-07-29T15:12:36.048Z,36.77
2022-07-29T15:15:03.689Z,37.11
2022-07-29T15:17:31.883Z,37.05
2022-07-29T15:19:59.147Z,37.21
2022-07-29T15:22:26.492Z,37.01
2022-07-29T15:24:54.018Z,36.81
2022-07-29T15:27:21.581Z,37.00
2022-07-29T15:29:49.122Z,36.54
2022-07-29T15:32:16.596Z,36.48
2022-07-29T15:34:44.067Z,36.75
2022-07-29T15:37:12.613Z,36.16
2022-07-29T15:39:40.206Z,36.42
2022-07-29T15:42:07.611Z,36.13
2022-07-29T15:44:35.594Z,36.18
2022-07-29T15:47:08.769Z,36.08
2022-07-29T15:49:48.500Z,35.98
2022-07-29T15:52:25.198Z,36.11
2022-07-29T15:54:57.903Z,35.98
2022-07-29T15:57:26.144Z,36.01
2022-07-29T15:59:53.797Z,36.17
2022-07-29T16:02:21.348Z,36.11
2022-07-29T16:04:48.895Z,36.36
2022-07-29T16:07:16.884Z,36.27
2022-07-29T16:09:49.366Z,36.27
2022-07-29T16:12:18.721Z,36.36
2022-07-29T16:14:46.342Z,36.44
2022-07-29T16:17:14.236Z,36.78
2022-07-29T16:19:44.173Z,36.47
2022-07-29T16:22:12.706Z,36.79
2022-07-29T16:24:40.460Z,36.50
2022-07-29T16:27:08.336Z,37.01
2022-07-29T16:29:37.416Z,37.07
2022-07-29T16:32:07.182Z,37.25
2022-07-29T16:34:34.796Z,37.43
2022-07-29T16:37:02.851Z,37.40
2022-07-29T16:39:30.372Z,37.60
2022-07-29T16:42:00.792Z,37.57
2022-07-29T16:44:29.163Z,37.72
2022-07-29T16:46:59.318Z,38.02
2022-07-29T16:49:28.518Z,38.06
2022-07-29T16:51:55.988Z,38.14
2022-07-29T16:54:23.659Z,37.93
2022-07-29T16:56:51.133Z,37.88
2022-07-29T16:59:18.718Z,38.51
2022-07-29T17:01:46.082Z,38.46
2022-07-29T17:04:15.339Z,38.56
2022-07-29T17:06:43.138Z,38.72
2022-07-29T17:09:12.750Z,38.71
2022-07-29T17:11:53.687Z,38.80
2022-07-29T17:14:27.828Z,38.99
2022-07-29T17:17:00.365Z,39.33
2022-07-29T17:19:31.751Z,39.34
2022-07-29T17:22:08.441Z,39.18
2022-07-29T17:24:38.293Z,38.80
2022-07-29T17:27:06.498Z,38.69
2022-07-29T17:29:37.386Z,38.93
2022-07-29T17:32:07.550Z,38.88
2022-07-29T17:34:39.554Z,39.44
2022-07-29T17:37:09.668Z,39.04
2022-07-29T17:39:40.856Z,38.95
2022-07-29T17:42:09.744Z,39.18
2022-07-29T17:44:38.010Z,39.63
2022-07-29T17:47:10.652Z,39.54
2022-07-29T17:49:44.648Z,40.10
2022-07-29T17:52:12.088Z,40.42
2022-07-29T17:54:39.293Z,40.58
2022-07-29T17:57:07.116Z,40.57
2022-07-29T17:59:34.602Z,40.56
2022-07-29T18:02:01.999Z,41.04
2022-07-29T18:04:31.119Z,41.19
2022-07-29T18:06:58.678Z,41.11
2022-07-29T18:09:26.158Z,40.70
2022-07-29T18:11:53.425Z,41.10
2022-07-29T18:14:20.582Z,41.16
2022-07-29T18:16:48.252Z,40.86
2022-07-29T18:19:16.316Z,41.14
2022-07-29T18:21:51.914Z,41.21
2022-07-29T18:24:25.776Z,41.61
2022-07-29T18:26:54.196Z,41.30
2022-07-29T18:29:21.861Z,41.82
2022-07-29T18:31:49.631Z,42.02
2022-07-29T18:34:17.246Z,41.71
2022-07-29T18:36:46.026Z,42.18
2022-07-29T18:39:20.300Z,41.91
2022-07-29T18:41:50.736Z,42.02
2022-07-29T18:44:21.977Z,42.45
2022-07-29T18:46:51.587Z,42.22
2022-07-29T18:49:19.403Z,42.42
2022-07-29T18:51:46.784Z,42.86
2022-07-29T18:54:15.117Z,42.58
2022-07-29T18:56:42.441Z,43.01
2022-07-29T18:59:11.559Z,43.35
2022-07-29T19:01:39.248Z,43.04
2022-07-29T19:04:10.883Z,43.34
2022-07-29T19:06:38.451Z,43.45
2022-07-29T19:09:05.843Z,43.88
2022-07-29T19:11:33.795Z,44.09
2022-07-29T19:14:03.905Z,44.28
2022-07-29T19:16:32.046Z,44.50
2022-07-29T19:19:01.094Z,44.69
2022-07-29T19:21:29.034Z,44.97
2022-07-29T19:24:06.024Z,45.17
2022-07-29T19:26:39.778Z,45.09
2022-07-29T19:29:07.041Z,45.53
2022-07-29T19:31:34.353Z,45.48
2022-07-29T19:34:01.674Z,45.56
2022-07-29T19:36:29.044Z,45.83
2022-07-29T19:38:56.345Z,45.96
2022-07-29T19:41:23.660Z,45.82
2022-07-29T19:43:53.073Z,46.22
2022-07-29T19:46:21.765Z,46.40
2022-07-29T19:48:49.504Z,46.44
2022-07-29T19:51:17.444Z,46.56
2022-07-29T19:53:44.733Z,46.59
2022-07-29T19:56:12.011Z,46.95
2022-07-29T19:58:41.269Z,47.01
2022-07-29T20:01:10.694Z,47.17
2022-07-29T20:03:40.344Z,47.32
2022-07-29T20:06:08.063Z,47.52
2022-07-29T20:08:35.600Z,47.57
2022-07-29T20:11:03.653Z,47.48
2022-07-29T20:13:33.226Z,47.55
2022-07-29T20:16:01.968Z,47.83
2022-07-29T20:18:29.475Z,47.86
2022-07-29T20:20:57.714Z,47.86
2022-07-29T20:23:25.147Z,47.93
2022-07-29T20:25:54.136Z,48.03
2022-07-29T20:28:22.409Z,47.89
2022-07-29T20:30:49.789Z,48.06
2022-07-29T20:33:16.984Z,48.01
2022-07-29T20:35:44.556Z,48.22
2022-07-29T20:38:15.126Z,48.17
2022-07-29T20:40:45.894Z,48.23
2022-07-29T20:43:13.160Z,48.20
2022-07-29T20:45:40.512Z,48.14
2022-07-29T20:48:08.225Z,48.25
2022-07-29T20:50:36.141Z,48.58
2022-07-29T20:53:03.627Z,48.50
2022-07-29T20:55:32.259Z,48.54
2022-07-29T20:57:59.459Z,48.41
2022-07-29T21:00:26.943Z,48.55
2022-07-29T21:02:54.558Z,48.82
2022-07-29T21:05:21.867Z,49.18
2022-07-29T21:07:49.290Z,48.55
2022-07-29T21:10:18.473Z,48.59
2022-07-29T21:12:49.528Z,49.15
2022-07-29T21:15:20.813Z,49.11
2022-07-29T21:17:48.454Z,49.11
2022-07-29T21:20:17.530Z,49.29
2022-07-29T21:22:45.179Z,48.99
2022-07-29T21:25:12.664Z,49.58
2022-07-29T21:27:58.613Z,49.49
2022-07-29T21:30:26.631Z,50.01
2022-07-29T21:32:53.784Z,49.75
2022-07-29T21:36:01.628Z,49.75
2022-07-29T21:38:08.845Z,49.97
2022-07-29T21:40:36.536Z,49.53
2022-07-29T21:43:04.044Z,49.89
2022-07-29T21:45:31.199Z,50.10
2022-07-29T21:47:58.446Z,49.88
2022-07-29T21:50:25.648Z,50.14
2022-07-29T21:52:52.836Z,50.28
2022-07-29T21:55:20.577Z,50.40
2022-07-29T21:57:49.908Z,50.27
2022-07-29T22:00:17.129Z,50.63
2022-07-29T22:02:45.105Z,50.88
2022-07-29T22:05:12.686Z,50.70
2022-07-29T22:07:56.453Z,50.58
2022-07-29T22:10:26.126Z,50.89
2022-07-29T22:12:55.198Z,51.05
2022-07-29T22:15:22.494Z,51.18
2022-07-29T22:17:49.923Z,51.14
2022-07-29T22:20:17.325Z,51.47
2022-07-29T22:22:44.512Z,51.23
2022-07-29T22:25:11.839Z,51.21
2022-07-29T22:27:39.501Z,51.48
2022-07-29T22:30:07.967Z,51.52
2022-07-29T22:32:35.441Z,51.54
2022-07-29T22:35:02.767Z,51.99
2022-07-29T22:37:31.239Z,51.75
2022-07-29T22:39:58.472Z,52.20
2022-07-29T22:42:26.197Z,52.22
2022-07-29T22:44:53.324Z,52.03
2022-07-29T22:47:39.814Z,52.42
2022-07-29T22:50:08.228Z,52.26
2022-07-29T22:52:35.478Z,52.43
2022-07-29T22:55:03.866Z,52.60
2022-07-29T22:57:31.250Z,52.46
2022-07-29T23:00:01.803Z,52.33
2022-07-29T23:02:31.617Z,52.52
2022-07-29T23:04:58.796Z,52.85
2022-07-29T23:07:27.532Z,52.62
2022-07-29T23:09:54.728Z,52.65
2022-07-29T23:12:22.369Z,52.96
2022-07-29T23:14:49.586Z,52.75
2022-07-29T23:17:16.954Z,53.08
2022-07-29T23:19:44.244Z,53.05
2022-07-29T23:22:12.096Z,53.28
2022-07-29T23:24:39.359Z,53.29
2022-07-29T23:27:08.571Z,53.10
2022-07-29T23:29:36.858Z,53.35
2022-07-29T23:32:04.503Z,53.12
2022-07-29T23:34:31.767Z,53.33
2022-07-29T23:36:59.353Z,53.44
2022-07-29T23:39:26.723Z,53.43
2022-07-29T23:41:53.900Z,53.91
2022-07-29T23:44:21.568Z,53.97
2022-07-29T23:46:48.945Z,54.04
2022-07-29T23:49:16.341Z,53.84
2022-07-29T23:51:43.675Z,53.97
2022-07-29T23:54:10.929Z,54.12
2022-07-29T23:56:38.030Z,54.38
2022-07-29T23:59:05.946Z,54.22
